createdAt,value
2023-03-21T00:00:47.704Z,11980.7695
2023-03-21T00:01:49.160Z,11975.2305
2023-03-21T00:02:50.663Z,11972.8457
2023-03-21T00:03:52.096Z,11973.4619
2023-03-21T00:04:55.094Z,11971.8457
2023-03-21T00:05:54.943Z,11970.1543
2023-03-21T00:06:56.330Z,11971.8457
2023-03-21T00:07:57.793Z,11974.6924
2023-03-21T00:08:59.211Z,11974.8457
2023-03-21T00:10:12.385Z,11975.0000
2023-03-21T00:11:02.098Z,11980.4619
2023-03-21T00:12:03.521Z,11978.1543
2023-03-21T00:13:04.962Z,11983.2305
2023-03-21T00:14:06.403Z,11983.4619
2023-03-21T00:15:07.835Z,11984.7695
2023-03-21T00:16:20.469Z,11985.4619
2023-03-21T00:17:10.710Z,11988.6152
2023-03-21T00:18:12.160Z,11991.6924
2023-03-21T00:19:13.584Z,11992.4619
2023-03-21T00:20:15.092Z,11993.5381
2023-03-21T00:21:40.687Z,11992.0000
2023-03-21T00:22:17.905Z,11992.6924
2023-03-21T00:23:19.337Z,11996.3076
2023-03-21T00:24:20.788Z,11987.3076
2023-03-21T00:25:22.222Z,11977.6152
2023-03-21T00:26:23.673Z,11975.4619
2023-03-21T00:27:56.927Z,11976.3848
2023-03-21T00:28:26.549Z,11979.3848
2023-03-21T00:29:27.988Z,11977.6924
2023-03-21T00:30:29.432Z,11981.1543
2023-03-21T00:31:30.863Z,11980.3076
2023-03-21T00:32:35.593Z,11978.3848
2023-03-21T00:33:33.754Z,11982.5381
2023-03-21T00:34:43.205Z,11981.7695
2023-03-21T00:36:01.806Z,11981.7695
2023-03-21T00:36:38.256Z,11982.5381
2023-03-21T00:37:39.605Z,11983.8457
2023-03-21T00:38:41.041Z,11982.4619
2023-03-21T00:39:42.483Z,11988.3848
2023-03-21T00:40:49.169Z,11990.3076
2023-03-21T00:41:45.403Z,11989.5381
2023-03-21T00:42:46.796Z,11989.0771
2023-03-21T00:43:48.216Z,11992.0771
2023-03-21T00:44:49.671Z,11993.3848
2023-03-21T00:45:51.147Z,11996.0771
2023-03-21T00:47:06.193Z,11995.9229
2023-03-21T00:47:54.138Z,11999.7695
2023-03-21T00:48:55.496Z,12002.0771
2023-03-21T00:49:56.840Z,12001.4619
2023-03-21T00:50:58.314Z,12003.7695
2023-03-21T00:52:14.790Z,12001.3076
2023-03-21T00:53:01.164Z,12004.2305
2023-03-21T00:54:02.594Z,12006.1543
2023-03-21T00:55:04.047Z,12010.5381
2023-03-21T00:56:05.485Z,12013.6924
2023-03-21T00:57:06.919Z,12013.0000
2023-03-21T00:58:08.393Z,12013.1543
2023-03-21T00:59:09.805Z,12015.6152
2023-03-21T01:00:11.229Z,12017.3076
2023-03-21T01:01:12.704Z,12018.0000
2023-03-21T01:02:14.159Z,12020.9229
2023-03-21T01:03:24.506Z,12020.8457
2023-03-21T01:04:17.166Z,12019.1543
2023-03-21T01:05:18.442Z,12023.4619
2023-03-21T01:06:19.866Z,12028.0000
2023-03-21T01:07:21.318Z,12027.0771
2023-03-21T01:08:29.411Z,12022.6152
2023-03-21T01:09:24.214Z,11996.3848
2023-03-21T01:10:25.632Z,11988.3848
2023-03-21T01:11:27.084Z,11986.9229
2023-03-21T01:12:28.525Z,11997.0000
2023-03-21T01:13:29.956Z,11999.3076
2023-03-21T01:14:31.401Z,12002.0000
2023-03-21T01:15:32.834Z,11994.7695
2023-03-21T01:16:34.379Z,11996.2305
2023-03-21T01:17:35.731Z,11996.2305
2023-03-21T01:18:37.142Z,12001.6152
2023-03-21T01:19:51.301Z,12001.8457
2023-03-21T01:20:40.031Z,11997.4619
2023-03-21T01:21:41.491Z,12000.2305
2023-03-21T01:22:42.897Z,12004.3076
2023-03-21T01:23:44.349Z,12007.4619
2023-03-21T01:24:54.115Z,12009.8457
2023-03-21T01:25:47.223Z,12007.8457
2023-03-21T01:26:48.666Z,12007.8457
2023-03-21T01:27:50.108Z,12013.2305
2023-03-21T01:28:51.534Z,12014.6924
2023-03-21T01:29:52.991Z,12016.5381
2023-03-21T01:30:54.415Z,12019.0771
2023-03-21T01:31:55.953Z,12016.7695
2023-03-21T01:32:57.292Z,12017.0771
2023-03-21T01:33:58.734Z,12018.7695
2023-03-21T01:35:00.173Z,12021.6924
2023-03-21T01:36:12.160Z,12021.8457
2023-03-21T01:37:03.081Z,12022.1543
2023-03-21T01:38:04.496Z,12025.6152
2023-03-21T01:39:05.926Z,12028.9229
2023-03-21T01:40:07.370Z,12030.3848
2023-03-21T01:41:18.892Z,12031.1543
2023-03-21T01:42:10.249Z,12034.7695
2023-03-21T01:43:11.681Z,12035.1543
2023-03-21T01:44:13.123Z,12034.9229
2023-03-21T01:45:14.565Z,12037.0000
2023-03-21T01:46:16.040Z,12038.2305
2023-03-21T01:47:17.461Z,12038.6152
2023-03-21T01:48:18.902Z,12027.3076
2023-03-21T01:49:20.305Z,12023.5381
2023-03-21T01:50:21.749Z,12023.6152
2023-03-21T01:51:23.185Z,12029.3848
2023-03-21T01:52:37.195Z,12035.1543
2023-03-21T01:53:26.067Z,12031.3848
2023-03-21T01:54:27.505Z,12033.4619
2023-03-21T01:55:28.940Z,12031.9229
2023-03-21T01:56:30.397Z,12036.4619
2023-03-21T01:57:40.962Z,12037.3848
2023-03-21T01:58:33.330Z,12040.4619
2023-03-21T01:59:34.702Z,12042.5381
2023-03-21T02:00:36.138Z,12040.9229
2023-03-21T02:01:37.576Z,12042.0000
2023-03-21T02:02:39.019Z,12045.4619
2023-03-21T02:03:40.500Z,12046.9229
2023-03-21T02:04:41.900Z,12048.0771
2023-03-21T02:05:43.326Z,12050.3848
2023-03-21T02:06:44.782Z,12048.4619
2023-03-21T02:07:46.200Z,12049.9229
2023-03-21T02:08:47.649Z,12051.1543
2023-03-21T02:09:49.086Z,12051.3076
2023-03-21T02:10:50.696Z,12053.9229
2023-03-21T02:11:51.999Z,12056.6924
2023-03-21T02:12:53.407Z,12054.6924
2023-03-21T02:14:05.670Z,12059.3076
2023-03-21T02:14:56.283Z,12057.8457
2023-03-21T02:15:57.716Z,12060.5381
2023-03-21T02:16:59.219Z,12062.3848
2023-03-21T02:18:00.582Z,12063.1543
2023-03-21T02:19:02.038Z,12064.6924
2023-03-21T02:20:03.468Z,12064.8457
2023-03-21T02:21:04.899Z,12066.6924
2023-03-21T02:22:06.325Z,12068.3848
2023-03-21T02:23:07.773Z,12065.9229
2023-03-21T02:24:09.210Z,12069.4619
2023-03-21T02:25:21.269Z,12073.0771
2023-03-21T02:26:12.089Z,12073.4619
2023-03-21T02:27:13.528Z,12072.8457
2023-03-21T02:28:14.956Z,12077.1543
2023-03-21T02:29:17.736Z,12076.9229
2023-03-21T02:30:28.247Z,12079.3848
2023-03-21T02:31:19.317Z,12080.2305
2023-03-21T02:32:35.018Z,12082.3076
2023-03-21T02:33:22.150Z,12087.3848
2023-03-21T02:34:23.588Z,12085.9229
2023-03-21T02:35:25.025Z,12085.3848
2023-03-21T02:36:26.543Z,12086.3848
2023-03-21T02:37:36.753Z,12085.9229
2023-03-21T02:38:29.380Z,12087.7695
2023-03-21T02:39:30.792Z,12089.1543
2023-03-21T02:40:32.247Z,12090.9229
2023-03-21T02:41:40.133Z,12090.6152
2023-03-21T02:42:35.138Z,12093.0771
2023-03-21T02:43:36.543Z,12094.0000
2023-03-21T02:44:37.994Z,12097.3848
2023-03-21T02:45:39.424Z,12097.1543
2023-03-21T02:46:45.653Z,12094.0000
2023-03-21T02:47:42.333Z,12096.3076
2023-03-21T02:48:50.672Z,12097.7695
2023-03-21T02:49:45.193Z,12099.6152
2023-03-21T02:50:46.622Z,12101.1543
2023-03-21T02:51:48.105Z,12101.5381
2023-03-21T02:52:49.490Z,12104.0771
2023-03-21T02:54:04.574Z,12103.6152
2023-03-21T02:54:52.368Z,12106.0771
2023-03-21T02:55:53.807Z,12107.9229
2023-03-21T02:56:55.380Z,12112.0771
2023-03-21T02:57:56.870Z,12109.3076
2023-03-21T02:58:58.174Z,12109.3076
2023-03-21T03:00:07.524Z,12114.4619
2023-03-21T03:01:01.020Z,12119.0000
2023-03-21T03:02:02.459Z,12118.4619
2023-03-21T03:03:09.869Z,12115.8457
2023-03-21T03:04:05.345Z,12115.8457
2023-03-21T03:05:18.005Z,12117.8457
2023-03-21T03:06:08.225Z,12121.1543
2023-03-21T03:07:09.624Z,12123.2305
2023-03-21T03:08:11.105Z,12125.0771
2023-03-21T03:09:12.511Z,12124.1543
2023-03-21T03:10:13.943Z,12127.0771
2023-03-21T03:11:15.373Z,12126.7695
2023-03-21T03:12:16.827Z,12128.7695
2023-03-21T03:13:18.254Z,12129.3076
2023-03-21T03:15:21.128Z,12131.1543
2023-03-21T03:16:22.570Z,12133.8457
2023-03-21T03:17:24.013Z,12133.8457
2023-03-21T03:18:25.454Z,12136.1543
2023-03-21T03:19:26.885Z,12137.8457
2023-03-21T03:20:28.323Z,12139.2305
2023-03-21T03:21:29.755Z,12140.6152
2023-03-21T03:22:31.197Z,12140.4619
2023-03-21T03:23:32.631Z,12138.4619
2023-03-21T03:24:34.093Z,12140.8457
2023-03-21T03:25:42.605Z,12143.2305
2023-03-21T03:26:36.961Z,12143.2305
2023-03-21T03:27:38.380Z,12146.1543
2023-03-21T03:28:39.840Z,12149.0771
2023-03-21T03:29:41.263Z,12146.9229
2023-03-21T03:30:54.070Z,12150.3848
2023-03-21T03:31:44.206Z,12148.9229
2023-03-21T03:32:45.577Z,12147.1543
2023-03-21T03:33:47.009Z,12143.3848
2023-03-21T03:34:48.451Z,12141.7695
2023-03-21T03:36:02.568Z,12143.4619
2023-03-21T03:36:51.372Z,12144.3076
2023-03-21T03:37:52.746Z,12148.6152
2023-03-21T03:38:54.185Z,12148.3076
2023-03-21T03:39:55.617Z,12148.6924
2023-03-21T03:40:57.061Z,12148.9229
2023-03-21T03:42:27.199Z,12149.9229
2023-03-21T03:42:59.929Z,12152.6152
2023-03-21T03:44:01.363Z,12153.6152
2023-03-21T03:45:02.810Z,12155.6924
2023-03-21T03:46:04.234Z,12156.7695
2023-03-21T03:47:05.691Z,12157.6924
2023-03-21T03:48:07.155Z,12159.8457
2023-03-21T03:49:08.566Z,12159.5381
2023-03-21T03:50:09.983Z,12158.1543
2023-03-21T03:51:11.425Z,12159.5381
2023-03-21T03:52:12.867Z,12161.9229
2023-03-21T03:53:18.358Z,12164.0000
2023-03-21T03:54:15.726Z,12164.3848
2023-03-21T03:55:17.166Z,12165.3076
2023-03-21T03:56:18.597Z,12166.3076
2023-03-21T03:57:20.046Z,12167.7695
2023-03-21T03:58:24.252Z,12167.9229
2023-03-21T03:59:22.902Z,12168.6152
2023-03-21T04:00:24.329Z,12171.3076
2023-03-21T04:01:25.768Z,12171.4619
2023-03-21T04:02:27.289Z,12171.5381
2023-03-21T04:03:32.416Z,12170.4619
2023-03-21T04:04:30.147Z,12173.6152
2023-03-21T04:05:31.513Z,12173.0000
2023-03-21T04:06:32.944Z,12175.0771
2023-03-21T04:07:34.385Z,12179.5381
2023-03-21T04:08:35.854Z,12180.4619
2023-03-21T04:09:44.071Z,12180.1543
2023-03-21T04:10:39.099Z,12180.5381
2023-03-21T04:11:40.122Z,12183.9229
2023-03-21T04:12:41.572Z,12180.5381
2023-03-21T04:13:43.047Z,12184.8457
2023-03-21T04:14:46.976Z,12188.5381
2023-03-21T04:15:46.072Z,12192.3076
2023-03-21T04:16:47.307Z,12191.7695
2023-03-21T04:17:48.719Z,12194.2305
2023-03-21T04:18:50.170Z,12197.0771
2023-03-21T04:19:55.476Z,12197.7695
2023-03-21T04:20:53.031Z,12203.1543
2023-03-21T04:21:54.455Z,12202.0000
2023-03-21T04:22:55.893Z,12205.4619
2023-03-21T04:23:57.323Z,12205.9229
2023-03-21T04:25:00.517Z,12209.6924
2023-03-21T04:26:00.189Z,12208.6152
2023-03-21T04:27:01.642Z,12211.7695
2023-03-21T04:28:03.045Z,12215.3848
2023-03-21T04:29:04.484Z,12215.6924
2023-03-21T04:30:05.911Z,12215.4619
2023-03-21T04:31:16.098Z,12218.3076
2023-03-21T04:32:08.820Z,12216.3076
2023-03-21T04:33:10.218Z,12216.9229
2023-03-21T04:34:11.641Z,12218.0000
2023-03-21T04:35:13.088Z,12220.3076
2023-03-21T04:36:14.546Z,12223.0000
2023-03-21T04:37:15.957Z,12221.1543
2023-03-21T04:38:17.477Z,12226.7695
2023-03-21T04:39:18.918Z,12226.5381
2023-03-21T04:40:20.367Z,12222.8457
2023-03-21T04:41:21.801Z,12226.7695
2023-03-21T04:42:23.210Z,12226.0771
2023-03-21T04:43:24.656Z,12224.8457
2023-03-21T04:44:26.082Z,12228.2305
2023-03-21T04:45:27.527Z,12229.3848
2023-03-21T04:46:28.968Z,12227.1543
2023-03-21T04:47:30.396Z,12227.3848
2023-03-21T04:48:31.831Z,12231.3848
2023-03-21T04:49:33.287Z,12234.3076
2023-03-21T04:50:34.921Z,12235.4619
2023-03-21T04:51:36.140Z,12234.4619
2023-03-21T04:52:37.588Z,12237.7695
2023-03-21T04:53:39.019Z,12236.3848
2023-03-21T04:54:40.450Z,12236.3848
2023-03-21T04:55:41.885Z,12237.3848
2023-03-21T04:56:43.329Z,12236.3076
2023-03-21T04:57:44.772Z,12236.5381
2023-03-21T04:58:46.191Z,12239.7695
2023-03-21T04:59:47.640Z,12238.0000
2023-03-21T05:00:49.090Z,12242.5381
2023-03-21T05:01:50.498Z,12244.6924
2023-03-21T05:02:51.929Z,12247.6924
2023-03-21T05:03:53.382Z,12247.9229
2023-03-21T05:04:54.794Z,12247.4619
2023-03-21T05:05:56.241Z,12249.6924
2023-03-21T05:06:57.664Z,12251.9229
2023-03-21T05:07:59.106Z,12249.5381
2023-03-21T05:09:00.555Z,12252.5381
2023-03-21T05:10:02.776Z,12257.0000
2023-03-21T05:11:03.408Z,12265.8457
2023-03-21T05:12:04.864Z,12272.6924
2023-03-21T05:13:06.299Z,12277.7695
2023-03-21T05:14:07.725Z,12280.3848
2023-03-21T05:15:09.194Z,12279.9229
2023-03-21T05:16:10.604Z,12280.9229
2023-03-21T05:17:12.044Z,12281.4619
2023-03-21T05:18:13.463Z,12283.3848
2023-03-21T05:19:14.903Z,12285.5381
2023-03-21T05:20:16.380Z,12289.0771
2023-03-21T05:21:17.768Z,12290.4619
2023-03-21T05:22:19.213Z,12293.6152
2023-03-21T05:23:20.636Z,12298.6152
2023-03-21T05:24:22.079Z,12295.1543
2023-03-21T05:25:23.513Z,12300.7695
2023-03-21T05:26:24.956Z,12301.7695
2023-03-21T05:27:26.390Z,12305.5381
2023-03-21T05:28:27.825Z,12305.2305
2023-03-21T05:29:29.260Z,12308.0771
2023-03-21T05:30:30.705Z,12311.3076
2023-03-21T05:31:32.143Z,12313.0000
2023-03-21T05:32:33.575Z,12309.1543
2023-03-21T05:33:35.000Z,12311.0000
2023-03-21T05:34:36.442Z,12316.1543
2023-03-21T05:35:38.141Z,12315.1543
2023-03-21T05:36:39.349Z,12321.3076
2023-03-21T05:37:40.753Z,12323.9229
2023-03-21T05:38:42.192Z,12323.5381
2023-03-21T05:39:43.623Z,12324.6152
2023-03-21T05:40:45.061Z,12327.0771
2023-03-21T05:41:46.521Z,12326.3848
2023-03-21T05:42:47.927Z,12327.5381
2023-03-21T05:43:49.370Z,12333.1543
2023-03-21T05:44:50.794Z,12338.3848
2023-03-21T05:45:52.267Z,12348.9229
2023-03-21T05:46:53.683Z,12597.1543
2023-03-21T05:47:55.129Z,13781.2305
2023-03-21T05:48:56.541Z,14155.6924
2023-03-21T05:49:57.971Z,14312.8457
2023-03-21T05:50:59.436Z,14321.1543
2023-03-21T05:52:00.860Z,13932.3848
2023-03-21T05:53:02.314Z,13573.1543
2023-03-21T05:54:03.757Z,13493.8457
2023-03-21T05:55:05.174Z,13489.0000
2023-03-21T05:56:06.614Z,13481.0000
2023-03-21T05:57:08.062Z,13479.8457
2023-03-21T05:58:09.478Z,13477.3848
2023-03-21T05:59:10.919Z,13456.3076
2023-03-21T06:00:12.369Z,13439.7695
2023-03-21T06:01:13.791Z,13429.2305
2023-03-21T06:02:15.311Z,13396.6924
2023-03-21T06:03:16.663Z,13404.3848
2023-03-21T06:04:18.140Z,13421.7695
2023-03-21T06:05:19.531Z,13426.2305
2023-03-21T06:06:20.972Z,13429.0000
2023-03-21T06:07:22.406Z,13421.0000
2023-03-21T06:08:23.833Z,13406.7695
2023-03-21T06:09:25.274Z,13360.2305
2023-03-21T06:10:26.702Z,13344.5381
2023-03-21T06:11:28.166Z,13334.9229
2023-03-21T06:12:29.580Z,13345.6924
2023-03-21T06:13:31.018Z,13335.6924
2023-03-21T06:14:32.459Z,13352.3076
2023-03-21T06:15:33.880Z,13377.0000
2023-03-21T06:16:35.323Z,13389.5381
2023-03-21T06:17:36.754Z,13377.1543
2023-03-21T06:18:38.196Z,13368.0771
2023-03-21T06:19:39.630Z,13360.9229
2023-03-21T06:20:41.056Z,13378.0000
2023-03-21T06:21:42.520Z,13367.0000
2023-03-21T06:22:43.934Z,13360.8457
2023-03-21T06:23:45.376Z,13363.6152
2023-03-21T06:24:46.802Z,13380.0771
2023-03-21T06:25:48.253Z,13404.9229
2023-03-21T06:26:49.683Z,13426.3076
2023-03-21T06:27:51.119Z,13452.6924
2023-03-21T06:28:52.540Z,13470.3076
2023-03-21T06:29:53.987Z,13479.2305
2023-03-21T06:30:55.501Z,13453.0000
2023-03-21T06:31:56.867Z,13426.4619
2023-03-21T06:32:58.327Z,13423.4619
2023-03-21T06:33:59.733Z,13424.4619
2023-03-21T06:35:01.168Z,13433.5381
2023-03-21T06:36:02.621Z,13439.3076
2023-03-21T06:37:04.051Z,13444.3076
2023-03-21T06:38:05.516Z,13435.1543
2023-03-21T06:39:06.917Z,13441.0000
2023-03-21T06:40:08.364Z,13443.0771
2023-03-21T06:41:09.780Z,13449.3076
2023-03-21T06:42:11.233Z,13473.6152
2023-03-21T06:43:12.669Z,13481.0771
2023-03-21T06:44:14.144Z,13480.5381
2023-03-21T06:45:15.542Z,13515.5381
2023-03-21T06:46:17.005Z,13538.5381
2023-03-21T06:47:18.426Z,13536.9229
2023-03-21T06:48:19.954Z,13534.3076
2023-03-21T06:49:21.301Z,13500.3076
2023-03-21T06:50:22.732Z,13492.7695
2023-03-21T06:51:24.169Z,13496.3076
2023-03-21T06:52:25.607Z,13514.6152
2023-03-21T06:53:27.038Z,13524.2305
2023-03-21T06:54:28.475Z,13544.4619
2023-03-21T06:55:29.896Z,13563.1543
2023-03-21T06:56:31.337Z,13546.9229
2023-03-21T06:57:32.777Z,13534.8457
2023-03-21T06:58:34.224Z,13539.3076
2023-03-21T06:59:35.641Z,13549.3076
2023-03-21T07:00:37.121Z,13519.4619
2023-03-21T07:01:38.538Z,13505.0771
2023-03-21T07:02:40.040Z,13504.0000
2023-03-21T07:03:41.397Z,13501.3076
2023-03-21T07:04:42.836Z,13499.2305
2023-03-21T07:05:44.262Z,13502.4619
2023-03-21T07:06:45.729Z,13499.0000
2023-03-21T07:07:47.143Z,13505.8457
2023-03-21T07:08:48.585Z,13486.5381
2023-03-21T07:09:50.018Z,13479.6152
2023-03-21T07:10:51.451Z,13476.6152
2023-03-21T07:11:52.903Z,13477.0771
2023-03-21T07:12:54.339Z,13476.0771
2023-03-21T07:13:55.780Z,13478.0000
2023-03-21T07:14:57.210Z,13474.5381
2023-03-21T07:15:58.660Z,13475.2305
2023-03-21T07:17:00.185Z,13474.0771
2023-03-21T07:18:01.527Z,13473.3076
2023-03-21T07:19:02.974Z,13480.0771
2023-03-21T07:20:04.413Z,13477.6924
2023-03-21T07:21:05.856Z,13473.7695
2023-03-21T07:22:07.322Z,13473.4619
2023-03-21T07:23:08.741Z,13469.4619
2023-03-21T07:24:10.170Z,13469.0000
2023-03-21T07:25:11.687Z,13471.3076
2023-03-21T07:26:13.069Z,13459.5381
2023-03-21T07:27:14.508Z,13439.6924
2023-03-21T07:28:15.923Z,13429.8457
2023-03-21T07:29:17.387Z,13415.5381
2023-03-21T07:30:18.810Z,13416.3848
2023-03-21T07:31:20.277Z,13411.9229
2023-03-21T07:32:21.683Z,13408.7695
2023-03-21T07:33:23.157Z,13400.4619
2023-03-21T07:34:24.554Z,13393.8457
2023-03-21T07:35:26.021Z,13385.8457
2023-03-21T07:36:27.436Z,13377.9229
2023-03-21T07:37:28.906Z,13371.3848
2023-03-21T07:38:30.318Z,13374.1543
2023-03-21T07:39:31.761Z,13372.5381
2023-03-21T07:40:33.215Z,13360.6152
2023-03-21T07:41:34.641Z,13359.6152
2023-03-21T07:42:36.090Z,13358.8457
2023-03-21T07:43:39.211Z,13353.9229
2023-03-21T17:02:34.837Z,13754.4287
2023-03-21T17:03:36.294Z,13678.8457
2023-03-21T17:04:37.754Z,13726.1543
2023-03-21T17:05:39.145Z,13731.2305
2023-03-21T17:06:40.575Z,13715.7695
2023-03-21T17:07:42.005Z,13696.9229
2023-03-21T17:08:43.439Z,13677.0000
2023-03-21T17:09:44.880Z,13665.5381
2023-03-21T17:10:46.314Z,13655.6152
2023-03-21T17:11:47.739Z,13651.0771
2023-03-21T17:12:49.186Z,13634.4619
2023-03-21T17:13:50.601Z,13633.1543
2023-03-21T17:14:52.038Z,13624.3848
2023-03-21T17:15:53.524Z,13611.6924
2023-03-21T17:16:54.983Z,13600.3076
2023-03-21T17:17:56.341Z,13597.4619
2023-03-21T17:18:57.785Z,13581.6152
2023-03-21T17:19:59.244Z,13563.2305
2023-03-21T17:21:00.667Z,13553.3848
2023-03-21T17:22:02.082Z,13549.0771
2023-03-21T17:23:03.525Z,13544.0771
2023-03-21T17:24:04.964Z,13554.8457
2023-03-21T17:25:06.388Z,13564.0771
2023-03-21T17:26:07.821Z,13567.3848
2023-03-21T17:27:09.262Z,13567.3076
2023-03-21T17:28:10.701Z,13574.0771
2023-03-21T17:29:12.126Z,13573.5381
2023-03-21T17:30:13.626Z,13564.8457
2023-03-21T17:31:15.058Z,13562.3076
2023-03-21T17:32:16.431Z,13558.2305
2023-03-21T17:33:17.880Z,13561.7695
2023-03-21T17:34:19.288Z,13557.9229
2023-03-21T17:35:20.751Z,13565.0771
2023-03-21T17:36:22.142Z,13563.6924
2023-03-21T17:37:23.594Z,13553.0771
2023-03-21T17:38:25.009Z,13554.4619
2023-03-21T17:39:26.442Z,13552.5381
2023-03-21T17:40:27.873Z,13546.5381
2023-03-21T17:41:29.309Z,13544.6924
2023-03-21T17:42:30.737Z,13539.6924
2023-03-21T17:43:32.178Z,13538.1543
2023-03-21T17:44:33.590Z,13539.4619
2023-03-21T17:45:35.027Z,13534.9229
2023-03-21T17:46:36.513Z,13532.0000
2023-03-21T17:47:37.913Z,13530.9229
2023-03-21T17:48:39.333Z,13526.9229
2023-03-21T17:49:40.759Z,13521.1543
2023-03-21T17:50:42.185Z,13523.1543
2023-03-21T17:51:43.632Z,13518.9229
2023-03-21T17:52:45.058Z,13520.6152
2023-03-21T17:53:46.487Z,13515.8457
2023-03-21T17:54:47.951Z,13516.0771
2023-03-21T17:55:49.377Z,13513.3076
2023-03-21T17:56:50.801Z,13511.5381
2023-03-21T17:57:52.239Z,13508.8457
2023-03-21T17:58:53.665Z,13508.8457
2023-03-21T17:59:55.108Z,13507.5381
2023-03-21T18:00:56.546Z,13505.3076
2023-03-21T18:01:58.023Z,13501.3076
2023-03-21T18:02:59.490Z,13505.1543
2023-03-21T18:04:00.889Z,13498.3076
2023-03-21T18:05:02.396Z,13498.3076
2023-03-21T18:06:03.736Z,13495.6152
2023-03-21T18:07:06.919Z,13502.9229
2023-03-21T18:08:11.037Z,13504.6924
2023-03-21T18:09:08.024Z,13505.1543
2023-03-21T18:10:09.467Z,13505.6152
2023-03-21T18:11:10.899Z,13500.8457
2023-03-21T18:12:12.329Z,13498.0771
2023-03-21T18:13:13.763Z,13498.3076
2023-03-21T18:14:18.081Z,13496.6152
2023-03-21T18:15:18.917Z,13497.9229
2023-03-21T18:16:18.112Z,13498.0771
2023-03-21T18:17:19.478Z,13496.6152
2023-03-21T18:18:20.918Z,13490.0771
2023-03-21T18:19:22.344Z,13492.3848
2023-03-21T18:20:24.258Z,13494.6152
2023-03-21T18:21:26.296Z,13487.6924
2023-03-21T18:22:26.648Z,13486.3076
2023-03-21T18:23:28.079Z,13486.4619
2023-03-21T18:24:29.519Z,13482.7695
2023-03-21T18:25:30.934Z,13482.6924
2023-03-21T18:26:32.429Z,13478.6152
2023-03-21T18:27:35.301Z,13481.9229
2023-03-21T18:28:35.228Z,13478.2305
2023-03-21T18:31:00.286Z,13479.7695
2023-03-21T18:31:39.529Z,13477.8457
2023-03-21T18:32:41.015Z,13471.6152
2023-03-21T18:33:42.389Z,13472.1543
2023-03-21T18:34:43.831Z,13479.0000
2023-03-21T18:35:46.374Z,13475.4619
2023-03-21T18:36:49.141Z,13473.3076
2023-03-21T18:37:48.134Z,13469.0000
2023-03-21T18:38:49.538Z,13470.2305
2023-03-21T18:39:50.976Z,13468.4619
2023-03-21T18:40:52.395Z,13466.4619
2023-03-21T18:41:57.762Z,13474.6924
2023-03-21T18:44:05.438Z,13486.6924
2023-03-21T18:44:58.189Z,13487.5381
2023-03-21T18:45:59.571Z,13483.7695
2023-03-21T18:47:01.018Z,13480.4619
2023-03-21T18:48:02.463Z,13479.0771
2023-03-21T18:49:33.941Z,13480.8457
2023-03-21T18:50:14.125Z,13480.3076
2023-03-21T18:51:06.718Z,13478.0771
2023-03-21T18:52:08.175Z,13475.4619
2023-03-21T18:53:09.572Z,13475.0000
2023-03-21T18:54:11.013Z,13476.1543
2023-03-21T18:55:12.441Z,13474.6924
2023-03-21T18:56:40.797Z,13470.5381
2023-03-21T18:58:16.744Z,13469.3848
2023-03-21T18:59:18.171Z,13468.3076
2023-03-21T19:00:19.646Z,13470.6924
2023-03-21T19:01:21.165Z,13466.5381
2023-03-21T19:02:22.633Z,13468.0000
2023-03-21T19:03:35.893Z,13467.0771
2023-03-21T19:04:30.045Z,13465.0771
2023-03-21T19:05:26.836Z,13462.8457
2023-03-21T19:06:28.237Z,13463.0000
2023-03-21T19:07:29.644Z,13459.4619
2023-03-21T19:08:31.120Z,13460.8457
2023-03-21T19:09:32.499Z,13457.2305
2023-03-21T19:10:33.944Z,13455.4619
2023-03-21T19:11:35.395Z,13455.1543
2023-03-21T19:12:36.822Z,13454.6152
2023-03-21T19:13:38.224Z,13453.9229
2023-03-21T19:14:39.662Z,13453.5381
2023-03-21T19:15:41.525Z,13452.1543
2023-03-21T19:17:08.476Z,13449.1543
2023-03-21T19:18:54.519Z,13446.3848
2023-03-21T19:19:46.908Z,13445.4619
2023-03-21T19:20:48.264Z,13454.0771
2023-03-21T19:21:49.692Z,13454.2305
2023-03-21T19:22:51.141Z,13455.6924
2023-03-21T19:24:25.259Z,13452.0000
2023-03-21T19:24:54.003Z,13446.6152
2023-03-21T19:25:55.420Z,13447.7695
2023-03-21T19:26:56.858Z,13448.0771
2023-03-21T19:27:58.300Z,13447.3848
2023-03-21T19:28:59.729Z,13446.6152
2023-03-21T19:30:13.466Z,13448.6924
2023-03-21T19:31:02.590Z,13446.5381
2023-03-21T19:32:04.088Z,13443.6152
2023-03-21T19:33:05.472Z,13440.0771
2023-03-21T19:34:06.889Z,13442.7695
2023-03-21T19:35:08.366Z,13439.7695
2023-03-21T19:36:20.930Z,13438.0000
2023-03-21T19:37:11.240Z,13430.9229
2023-03-21T19:38:12.633Z,13427.6152
2023-03-21T19:39:14.072Z,13425.3076
2023-03-21T19:40:15.511Z,13424.1543
2023-03-21T19:41:16.959Z,13426.2305
2023-03-21T19:42:18.474Z,13425.2305
2023-03-21T19:43:32.270Z,13421.7695
2023-03-21T19:44:21.249Z,13421.0000
2023-03-21T19:45:22.679Z,13412.7695
2023-03-21T19:46:24.113Z,13416.0771
2023-03-21T19:47:25.562Z,13410.8457
2023-03-21T19:48:27.179Z,13410.2305
2023-03-21T19:49:48.535Z,13402.9229
2023-03-21T19:51:24.467Z,13397.4619
2023-03-21T19:51:31.582Z,13400.0000
2023-03-21T19:52:32.731Z,13398.2305
2023-03-21T19:53:34.163Z,13393.9229
2023-03-21T19:54:35.591Z,13394.6152
2023-03-21T19:55:37.030Z,13390.5381
2023-03-21T19:56:38.451Z,13377.6924
2023-03-21T19:57:39.939Z,13300.1543
2023-03-21T19:58:41.330Z,13222.5381
2023-03-21T19:59:42.775Z,13200.8457
2023-03-21T20:00:44.205Z,13202.5381
2023-03-21T20:01:45.998Z,13216.7695
2023-03-21T20:02:47.129Z,13232.2305
2023-03-21T20:03:48.573Z,13219.0000
2023-03-21T20:04:49.950Z,13157.6924
2023-03-21T20:05:51.461Z,13088.7695
2023-03-21T20:06:52.817Z,13059.0000
2023-03-21T20:07:54.265Z,13066.0000
2023-03-21T20:09:41.213Z,13084.3076
2023-03-21T20:09:57.576Z,13083.8457
2023-03-21T20:10:58.562Z,13071.5381
2023-03-21T20:12:00.012Z,13073.6152
2023-03-21T20:13:01.450Z,12966.2305
2023-03-21T20:14:02.898Z,12957.3076
2023-03-21T20:15:16.661Z,13064.8457
2023-03-21T20:16:05.791Z,13148.1543
2023-03-21T20:17:07.239Z,13197.5381
2023-03-21T20:18:08.632Z,13208.8457
2023-03-21T20:19:10.073Z,13215.0771
2023-03-21T20:20:11.508Z,13235.1543
2023-03-21T20:21:17.667Z,13263.9229
2023-03-21T20:22:24.515Z,13283.0000
2023-03-21T20:23:16.093Z,13293.0000
2023-03-21T20:24:17.240Z,13298.5381
2023-03-21T20:25:18.665Z,13309.5381
2023-03-21T20:26:20.098Z,13314.9229
2023-03-21T20:27:21.524Z,13324.6924
2023-03-21T20:28:27.128Z,13328.3848
2023-03-21T20:30:25.841Z,13296.3848
2023-03-21T20:31:27.391Z,13294.6152
2023-03-21T20:32:28.713Z,13288.8457
2023-03-21T20:33:30.146Z,13292.3076
2023-03-21T20:34:31.598Z,13299.0771
2023-03-21T20:36:23.681Z,13306.2305
2023-03-21T20:36:40.442Z,13310.5381
2023-03-21T20:37:35.954Z,13311.3848
2023-03-21T20:38:37.333Z,13315.3848
2023-03-21T20:39:38.753Z,13315.1543
2023-03-21T20:40:40.537Z,13315.4619
2023-03-21T20:41:41.629Z,13317.5381
2023-03-21T20:42:43.078Z,13320.6152
2023-03-21T20:44:57.940Z,13331.3076
2023-03-21T20:45:47.377Z,13334.0000
2023-03-21T20:46:48.902Z,13334.0771